AUA730 LQSA-LOWW
Flight info
| Callsign | AUA730 |
|---|---|
| Flight time | 0h 47m |
| Altitude | 34000 |
| Route | BOSNA DCT IRDIV DCT NOVLO DCT ZAG DCT OBUTI OBUTI2W |
| Aircraft | A320/M-SDE3FGHIRWY/LB1 |
Departure
| Time | 2026-05-01 09:35 |
|---|---|
| Airport | Sarajevo International Airport (LQSA) |
Arrival
| Time | 2026-05-01 10:22 |
|---|---|
| Airport | Vienna International Airport (LOWW) |
| Time | Latitude | Longitude | Altitude | Speed | Heading |
|---|---|---|---|---|---|
| 2026-05-01 09:24 | 43.82515 | 18.33690 | 1689 ft | 0 kts | 25° |
| 2026-05-01 09:31 | 43.82510 | 18.33704 | 1697 ft | 4 kts | 156° |
| 2026-05-01 09:32 | 43.82483 | 18.33715 | 1692 ft | 6 kts | 165° |
| 2026-05-01 09:32 | 43.82377 | 18.33844 | 1694 ft | 16 kts | 117° |
| 2026-05-01 09:32 | 43.82318 | 18.34004 | 1699 ft | 22 kts | 117° |
| 2026-05-01 09:33 | 43.82241 | 18.34209 | 1702 ft | 24 kts | 117° |
| 2026-05-01 09:33 | 43.82164 | 18.34414 | 1707 ft | 24 kts | 117° |
| 2026-05-01 09:33 | 43.81978 | 18.34604 | 1712 ft | 16 kts | 202° |
| 2026-05-01 09:34 | 43.81937 | 18.34538 | 1709 ft | 9 kts | 287° |
| 2026-05-01 09:34 | 43.81982 | 18.34420 | 1707 ft | 32 kts | 298° |
| 2026-05-01 09:34 | 43.82670 | 18.32561 | 1692 ft | 168 kts | 303° |
| 2026-05-01 09:35 | 43.83228 | 18.31084 | 2358 ft | 174 kts | 306° |
| 2026-05-01 09:35 | 43.85213 | 18.29534 | 3995 ft | 174 kts | 351° |
| 2026-05-01 09:35 | 43.86449 | 18.29103 | 4581 ft | 192 kts | 351° |
| 2026-05-01 09:36 | 43.87796 | 18.28641 | 5159 ft | 208 kts | 349° |
| 2026-05-01 09:36 | 43.89258 | 18.28097 | 5825 ft | 226 kts | 349° |
| 2026-05-01 09:36 | 43.90804 | 18.27498 | 6655 ft | 234 kts | 348° |
| 2026-05-01 09:36 | 43.92390 | 18.26877 | 7432 ft | 240 kts | 348° |
| 2026-05-01 09:37 | 43.94016 | 18.26232 | 8352 ft | 245 kts | 348° |
| 2026-05-01 09:37 | 43.97460 | 18.25419 | 9905 ft | 266 kts | 359° |
| 2026-05-01 09:37 | 43.99328 | 18.25183 | 10718 ft | 273 kts | 359° |
| 2026-05-01 09:38 | 44.03167 | 18.24688 | 12462 ft | 281 kts | 359° |
| 2026-05-01 09:38 | 44.05115 | 18.24262 | 13307 ft | 289 kts | 347° |
| 2026-05-01 09:38 | 44.06978 | 18.23109 | 14089 ft | 301 kts | 332° |
| 2026-05-01 09:39 | 44.10231 | 18.18656 | 14527 ft | 353 kts | 315° |
| 2026-05-01 09:39 | 44.11870 | 18.16048 | 15083 ft | 362 kts | 315° |
| 2026-05-01 09:39 | 44.13551 | 18.13377 | 15279 ft | 382 kts | 315° |
| 2026-05-01 09:40 | 44.15353 | 18.10527 | 15429 ft | 401 kts | 315° |
| 2026-05-01 09:40 | 44.19113 | 18.04579 | 16480 ft | 413 kts | 314° |
| 2026-05-01 09:40 | 44.21020 | 18.01549 | 17104 ft | 416 kts | 314° |
| 2026-05-01 09:41 | 44.22937 | 17.98500 | 17729 ft | 419 kts | 314° |
| 2026-05-01 09:41 | 44.26802 | 17.92341 | 18842 ft | 425 kts | 314° |
| 2026-05-01 09:41 | 44.28759 | 17.89226 | 19317 ft | 427 kts | 314° |
| 2026-05-01 09:42 | 44.30727 | 17.86092 | 19706 ft | 430 kts | 314° |
| 2026-05-01 09:42 | 44.32709 | 17.82932 | 20147 ft | 433 kts | 314° |
| 2026-05-01 09:42 | 44.36777 | 17.76671 | 21007 ft | 435 kts | 320° |
| 2026-05-01 09:43 | 44.41646 | 17.71734 | 21805 ft | 437 kts | 329° |
| 2026-05-01 09:43 | 44.44189 | 17.69388 | 22194 ft | 440 kts | 329° |
| 2026-05-01 09:43 | 44.46753 | 17.67018 | 22557 ft | 442 kts | 329° |
| 2026-05-01 09:44 | 44.51921 | 17.62233 | 23288 ft | 447 kts | 329° |
| 2026-05-01 09:44 | 44.54526 | 17.59816 | 23617 ft | 450 kts | 329° |
| 2026-05-01 09:44 | 44.57142 | 17.57385 | 23933 ft | 452 kts | 330° |
| 2026-05-01 09:45 | 44.59766 | 17.54943 | 24199 ft | 454 kts | 330° |
| 2026-05-01 09:45 | 44.65055 | 17.50018 | 24709 ft | 457 kts | 330° |
| 2026-05-01 09:45 | 44.67709 | 17.47544 | 24945 ft | 459 kts | 330° |
| 2026-05-01 09:46 | 44.70374 | 17.45053 | 25180 ft | 461 kts | 330° |
| 2026-05-01 09:46 | 44.73046 | 17.42549 | 25388 ft | 462 kts | 330° |
| 2026-05-01 09:46 | 44.75728 | 17.40032 | 25583 ft | 463 kts | 331° |
| 2026-05-01 09:46 | 44.78409 | 17.37515 | 25762 ft | 465 kts | 331° |
| 2026-05-01 09:47 | 44.81071 | 17.35018 | 25926 ft | 466 kts | 331° |
| 2026-05-01 09:47 | 44.83811 | 17.32449 | 26090 ft | 467 kts | 331° |
| 2026-05-01 09:47 | 44.86480 | 17.29944 | 26230 ft | 468 kts | 331° |
| 2026-05-01 09:47 | 44.89185 | 17.27395 | 26421 ft | 467 kts | 332° |
| 2026-05-01 09:48 | 44.91884 | 17.24846 | 26633 ft | 467 kts | 332° |
| 2026-05-01 09:48 | 44.94582 | 17.22294 | 26825 ft | 466 kts | 332° |
| 2026-05-01 09:48 | 44.97277 | 17.19743 | 27034 ft | 466 kts | 332° |
| 2026-05-01 09:48 | 44.99974 | 17.17191 | 27247 ft | 466 kts | 333° |
| 2026-05-01 09:49 | 45.02663 | 17.14645 | 27446 ft | 465 kts | 333° |
| 2026-05-01 09:49 | 45.05351 | 17.12096 | 27659 ft | 465 kts | 333° |
| 2026-05-01 09:49 | 45.08037 | 17.09547 | 27878 ft | 465 kts | 333° |
| 2026-05-01 09:49 | 45.10722 | 17.06995 | 28103 ft | 464 kts | 334° |
| 2026-05-01 09:50 | 45.13400 | 17.04442 | 28338 ft | 464 kts | 334° |
| 2026-05-01 09:50 | 45.16074 | 17.01886 | 28582 ft | 463 kts | 334° |
| 2026-05-01 09:50 | 45.18742 | 16.99333 | 28832 ft | 463 kts | 334° |
| 2026-05-01 09:50 | 45.21413 | 16.96778 | 29074 ft | 462 kts | 334° |
| 2026-05-01 09:51 | 45.24081 | 16.94230 | 29318 ft | 462 kts | 335° |
| 2026-05-01 09:51 | 45.26746 | 16.91681 | 29568 ft | 461 kts | 335° |
| 2026-05-01 09:51 | 45.29404 | 16.89133 | 29822 ft | 461 kts | 335° |
| 2026-05-01 09:51 | 45.32058 | 16.86584 | 30076 ft | 460 kts | 335° |
| 2026-05-01 09:52 | 45.33815 | 16.84900 | 30245 ft | 460 kts | 335° |
| 2026-05-01 09:52 | 45.37326 | 16.81528 | 30573 ft | 459 kts | 335° |
| 2026-05-01 09:52 | 45.39966 | 16.78986 | 30793 ft | 458 kts | 335° |
| 2026-05-01 09:52 | 45.42599 | 16.76445 | 31013 ft | 458 kts | 335° |
| 2026-05-01 09:53 | 45.45232 | 16.73899 | 31236 ft | 457 kts | 335° |
| 2026-05-01 09:53 | 45.47014 | 16.72177 | 31385 ft | 456 kts | 335° |
| 2026-05-01 09:53 | 45.49600 | 16.69679 | 31596 ft | 456 kts | 335° |
| 2026-05-01 09:53 | 45.52227 | 16.67136 | 31836 ft | 455 kts | 335° |
| 2026-05-01 09:54 | 45.54844 | 16.64598 | 32068 ft | 454 kts | 335° |
| 2026-05-01 09:54 | 45.57458 | 16.62063 | 32293 ft | 454 kts | 335° |
| 2026-05-01 09:54 | 45.62687 | 16.56991 | 32398 ft | 454 kts | 335° |
| 2026-05-01 09:55 | 45.67907 | 16.51912 | 32400 ft | 453 kts | 335° |
| 2026-05-01 09:55 | 45.73120 | 16.46818 | 32396 ft | 453 kts | 334° |
| 2026-05-01 09:56 | 45.78326 | 16.41718 | 32395 ft | 453 kts | 335° |
| 2026-05-01 09:56 | 45.83530 | 16.36603 | 32400 ft | 453 kts | 335° |
| 2026-05-01 09:57 | 45.88918 | 16.32175 | 32400 ft | 437 kts | 348° |
| 2026-05-01 09:57 | 45.91783 | 16.30920 | 32388 ft | 426 kts | 356° |
| 2026-05-01 09:57 | 45.94647 | 16.30326 | 32381 ft | 417 kts | 4° |
| 2026-05-01 09:58 | 46.00431 | 16.29938 | 32126 ft | 416 kts | 5° |
| 2026-05-01 09:58 | 46.03331 | 16.29748 | 31742 ft | 417 kts | 5° |
| 2026-05-01 09:58 | 46.06227 | 16.29554 | 31352 ft | 417 kts | 5° |
| 2026-05-01 09:59 | 46.09128 | 16.29359 | 30974 ft | 417 kts | 5° |
| 2026-05-01 09:59 | 46.12037 | 16.29165 | 30607 ft | 418 kts | 5° |
| 2026-05-01 09:59 | 46.14948 | 16.28970 | 30191 ft | 419 kts | 5° |
| 2026-05-01 09:59 | 46.17869 | 16.28769 | 29831 ft | 420 kts | 5° |
| 2026-05-01 10:00 | 46.20805 | 16.28567 | 29489 ft | 422 kts | 5° |
| 2026-05-01 10:00 | 46.23704 | 16.28368 | 29141 ft | 423 kts | 5° |
| 2026-05-01 10:00 | 46.26646 | 16.28167 | 28831 ft | 424 kts | 5° |
| 2026-05-01 10:00 | 46.29591 | 16.27968 | 28529 ft | 425 kts | 4° |
| 2026-05-01 10:01 | 46.32550 | 16.27771 | 28224 ft | 426 kts | 4° |
| 2026-05-01 10:01 | 46.35519 | 16.27573 | 27930 ft | 427 kts | 4° |
| 2026-05-01 10:01 | 46.38492 | 16.27261 | 27631 ft | 433 kts | 359° |
| 2026-05-01 10:01 | 46.41481 | 16.26567 | 27342 ft | 435 kts | 358° |
| 2026-05-01 10:02 | 46.44478 | 16.25855 | 27052 ft | 437 kts | 358° |
| 2026-05-01 10:02 | 46.47481 | 16.25142 | 26768 ft | 438 kts | 358° |
| 2026-05-01 10:02 | 46.50493 | 16.24429 | 26486 ft | 439 kts | 357° |
| 2026-05-01 10:02 | 46.53508 | 16.23712 | 26203 ft | 439 kts | 357° |
| 2026-05-01 10:03 | 46.56528 | 16.22993 | 25916 ft | 440 kts | 357° |
| 2026-05-01 10:03 | 46.59558 | 16.22274 | 25649 ft | 441 kts | 357° |
| 2026-05-01 10:03 | 46.62588 | 16.21556 | 25381 ft | 442 kts | 357° |
| 2026-05-01 10:03 | 46.65628 | 16.20833 | 25109 ft | 443 kts | 357° |
| 2026-05-01 10:04 | 46.68693 | 16.20106 | 24839 ft | 449 kts | 357° |
| 2026-05-01 10:04 | 46.71784 | 16.19374 | 24573 ft | 451 kts | 356° |
| 2026-05-01 10:04 | 46.74886 | 16.18636 | 24323 ft | 451 kts | 356° |
| 2026-05-01 10:04 | 46.77977 | 16.17898 | 24046 ft | 449 kts | 357° |
| 2026-05-01 10:05 | 46.81061 | 16.17159 | 23747 ft | 448 kts | 356° |
| 2026-05-01 10:05 | 46.84135 | 16.16415 | 23437 ft | 447 kts | 356° |
| 2026-05-01 10:05 | 46.87197 | 16.15671 | 23133 ft | 445 kts | 356° |
| 2026-05-01 10:05 | 46.90247 | 16.14930 | 22837 ft | 443 kts | 356° |
| 2026-05-01 10:06 | 46.93289 | 16.14196 | 22541 ft | 442 kts | 356° |
| 2026-05-01 10:06 | 46.96317 | 16.13468 | 22241 ft | 441 kts | 356° |
| 2026-05-01 10:06 | 46.99340 | 16.12740 | 21948 ft | 439 kts | 356° |
| 2026-05-01 10:06 | 47.02351 | 16.12016 | 21663 ft | 438 kts | 356° |
| 2026-05-01 10:07 | 47.05356 | 16.11290 | 21372 ft | 437 kts | 355° |
| 2026-05-01 10:07 | 47.08354 | 16.10565 | 21085 ft | 436 kts | 355° |
| 2026-05-01 10:07 | 47.11305 | 16.09851 | 20805 ft | 435 kts | 355° |
| 2026-05-01 10:07 | 47.14290 | 16.09127 | 20530 ft | 434 kts | 355° |
| 2026-05-01 10:08 | 47.20230 | 16.07677 | 19982 ft | 431 kts | 355° |
| 2026-05-01 10:08 | 47.23183 | 16.06960 | 19709 ft | 430 kts | 355° |
| 2026-05-01 10:08 | 47.26137 | 16.06245 | 19441 ft | 429 kts | 355° |
| 2026-05-01 10:09 | 47.29082 | 16.05532 | 19176 ft | 428 kts | 355° |
| 2026-05-01 10:09 | 47.32016 | 16.04817 | 18913 ft | 427 kts | 355° |
| 2026-05-01 10:09 | 47.34952 | 16.04299 | 18648 ft | 422 kts | 1° |
| 2026-05-01 10:09 | 47.37866 | 16.04513 | 18296 ft | 417 kts | 11° |
| 2026-05-01 10:10 | 47.40654 | 16.05532 | 17812 ft | 409 kts | 23° |
| 2026-05-01 10:10 | 47.43130 | 16.07519 | 17216 ft | 403 kts | 37° |
| 2026-05-01 10:10 | 47.47543 | 16.12545 | 16040 ft | 398 kts | 39° |
| 2026-05-01 10:11 | 47.49706 | 16.15069 | 15467 ft | 394 kts | 39° |
| 2026-05-01 10:11 | 47.51843 | 16.17581 | 14898 ft | 391 kts | 39° |
| 2026-05-01 10:11 | 47.53961 | 16.20074 | 14341 ft | 388 kts | 39° |
| 2026-05-01 10:11 | 47.56063 | 16.22548 | 13749 ft | 385 kts | 39° |
| 2026-05-01 10:12 | 47.58163 | 16.25011 | 13141 ft | 383 kts | 39° |
| 2026-05-01 10:12 | 47.60249 | 16.27449 | 12472 ft | 380 kts | 38° |
| 2026-05-01 10:12 | 47.64336 | 16.32222 | 10967 ft | 372 kts | 39° |
| 2026-05-01 10:13 | 47.66346 | 16.34583 | 10230 ft | 366 kts | 39° |
| 2026-05-01 10:13 | 47.68321 | 16.36908 | 9666 ft | 355 kts | 39° |
| 2026-05-01 10:13 | 47.70213 | 16.39139 | 9330 ft | 340 kts | 39° |
| 2026-05-01 10:14 | 47.73768 | 16.43335 | 8706 ft | 313 kts | 39° |
| 2026-05-01 10:14 | 47.75441 | 16.45312 | 8392 ft | 302 kts | 39° |
| 2026-05-01 10:14 | 47.77063 | 16.47230 | 8089 ft | 293 kts | 39° |
| 2026-05-01 10:14 | 47.78626 | 16.49074 | 7782 ft | 278 kts | 39° |
| 2026-05-01 10:15 | 47.80093 | 16.50805 | 7485 ft | 263 kts | 39° |
| 2026-05-01 10:15 | 47.81510 | 16.52481 | 7220 ft | 257 kts | 39° |
| 2026-05-01 10:15 | 47.82895 | 16.54125 | 6906 ft | 254 kts | 39° |
| 2026-05-01 10:15 | 47.84270 | 16.55756 | 6536 ft | 252 kts | 39° |
| 2026-05-01 10:16 | 47.85636 | 16.57379 | 6159 ft | 251 kts | 39° |
| 2026-05-01 10:16 | 47.87000 | 16.59002 | 5733 ft | 250 kts | 39° |
| 2026-05-01 10:16 | 47.89640 | 16.62147 | 4761 ft | 234 kts | 38° |
| 2026-05-01 10:17 | 47.90891 | 16.63639 | 4308 ft | 226 kts | 38° |
| 2026-05-01 10:17 | 47.93638 | 16.65264 | 3736 ft | 215 kts | 1° |
| 2026-05-01 10:17 | 47.95085 | 16.64938 | 3458 ft | 206 kts | 345° |
| 2026-05-01 10:18 | 47.97710 | 16.63832 | 2954 ft | 190 kts | 346° |
| 2026-05-01 10:18 | 47.98979 | 16.63299 | 2696 ft | 192 kts | 345° |
| 2026-05-01 10:18 | 48.00261 | 16.62760 | 2389 ft | 187 kts | 345° |
| 2026-05-01 10:19 | 48.01453 | 16.62257 | 2165 ft | 171 kts | 345° |
| 2026-05-01 10:19 | 48.02577 | 16.61784 | 1925 ft | 163 kts | 345° |
| 2026-05-01 10:19 | 48.03645 | 16.61335 | 1717 ft | 155 kts | 345° |
| 2026-05-01 10:20 | 48.05541 | 16.60533 | 1303 ft | 131 kts | 345° |
| 2026-05-01 10:20 | 48.06409 | 16.60167 | 1112 ft | 130 kts | 345° |
| 2026-05-01 10:20 | 48.07278 | 16.59796 | 983 ft | 130 kts | 343° |
| 2026-05-01 10:20 | 48.08117 | 16.59448 | 792 ft | 121 kts | 345° |
| 2026-05-01 10:21 | 48.08924 | 16.59108 | 659 ft | 120 kts | 343° |
| 2026-05-01 10:21 | 48.10271 | 16.58539 | 611 ft | 75 kts | 345° |
| 2026-05-01 10:21 | 48.10698 | 16.58358 | 613 ft | 54 kts | 345° |
| 2026-05-01 10:22 | 48.11037 | 16.58085 | 612 ft | 24 kts | 300° |
| 2026-05-01 10:22 | 48.11194 | 16.57604 | 613 ft | 27 kts | 296° |
| 2026-05-01 10:23 | 48.11268 | 16.57379 | 611 ft | 15 kts | 296° |
| 2026-05-01 10:23 | 48.11411 | 16.57388 | 609 ft | 11 kts | 350° |
| 2026-05-01 10:23 | 48.11459 | 16.57287 | 618 ft | 14 kts | 295° |
| 2026-05-01 10:24 | 48.11449 | 16.57146 | 611 ft | 6 kts | 205° |
| 2026-05-01 10:24 | 48.11423 | 16.57127 | 609 ft | 0 kts | 204° |